Time;durP1;ratioP1;P1;durP2;ratioP2;P2;SDS_P1;SDS_P2;PMS_P1;PMS_P2;Temp;Humidity;BMP_temperature;BMP_pressure;BME280_temperature;BME280_humidity;BME280_pressure;Samples;Min_cycle;Max_cycle;Signal;HPM_P1;HPM_P2
2021/08/13 11:08:00;;;;;;;3.10;2.22;;;;;;;25.63;45.27;101427.81;1791704;78;22084;-48
2021/08/13 11:10:41;;;;;;;4.97;2.67;;;;;;;25.60;45.21;101430.47;1749293;80;21325;-42
2021/08/13 11:13:14;;;;;;;2.98;2.12;;;;;;;25.63;45.07;101428.42;1746591;80;23260;-44
2021/08/13 11:15:40;;;;;;;5.17;2.30;;;;;;;25.67;44.92;101428.80;1739759;80;20996;-44
2021/08/13 11:18:35;;;;;;;3.65;2.58;;;;;;;25.73;44.75;101422.44;1741379;80;20956;-43
2021/08/13 11:21:03;;;;;;;4.15;2.70;;;;;;;25.76;44.55;101419.78;1721476;81;21502;-42
2021/08/13 11:23:31;;;;;;;6.80;2.30;;;;;;;25.85;44.33;101415.55;1684981;84;20915;-43
2021/08/13 11:25:57;;;;;;;2.98;2.40;;;;;;;25.90;44.13;101408.38;1708981;82;21057;-43
2021/08/13 11:28:28;;;;;;;5.50;2.80;;;;;;;25.95;43.89;101408.76;1712927;82;21485;-43
2021/08/13 11:31:00;;;;;;;5.12;2.83;;;;;;;26.01;43.69;101408.23;1686690;83;21517;-43
2021/08/13 11:33:37;;;;;;;4.75;2.55;;;;;;;26.05;43.48;101406.39;1704836;83;20916;-42
2021/08/13 11:36:06;;;;;;;4.72;2.58;;;;;;;26.10;43.27;101403.37;1712122;82;21112;-42
2021/08/13 11:38:52;;;;;;;3.45;2.58;;;;;;;26.16;43.13;101399.81;1713387;83;21512;-42
2021/08/13 11:41:24;;;;;;;3.58;2.75;;;;;;;26.22;43.12;101404.06;1715425;82;21065;-41
2021/08/13 11:43:59;;;;;;;5.47;2.50;;;;;;;26.32;43.14;101407.23;1714412;82;21060;-41
2021/08/13 11:46:32;;;;;;;3.58;2.47;;;;;;;26.40;43.13;101397.14;1708786;82;21085;-42
2021/08/13 11:49:00;;;;;;;3.30;2.22;;;;;;;26.48;43.11;101399.03;1718265;82;21626;-42
2021/08/13 11:51:28;;;;;;;3.20;2.47;;;;;;;26.57;43.07;101397.55;1717191;82;21112;-41
2021/08/13 11:53:54;;;;;;;3.77;2.55;;;;;;;26.65;43.03;101393.88;1713565;82;21092;-41
2021/08/13 11:56:26;;;;;;;2.77;2.47;;;;;;;26.72;42.97;101400.52;1714234;83;21092;-41
2021/08/13 11:59:06;;;;;;;3.98;2.52;;;;;;;26.78;42.93;101395.52;1716082;83;21147;-42
2021/08/13 12:01:49;;;;;;;2.80;2.30;;;;;;;26.86;42.88;101398.03;1712161;83;21115;-42
2021/08/13 12:04:23;;;;;;;4.58;2.20;;;;;;;26.92;42.80;101396.63;1712697;82;21342;-43
2021/08/13 12:07:08;;;;;;;2.95;2.30;;;;;;;26.98;42.77;101397.47;1712351;82;21071;-42
2021/08/13 12:09:42;;;;;;;3.02;2.05;;;;;;;27.04;42.72;101393.84;1711458;82;22247;-43
2021/08/13 12:12:13;;;;;;;2.87;2.08;;;;;;;27.10;42.65;101398.05;1714005;82;21146;-43
2021/08/13 12:14:48;;;;;;;3.87;2.83;;;;;;;27.14;42.56;101391.42;1714682;82;21064;-43
2021/08/13 12:17:14;;;;;;;2.67;2.40;;;;;;;27.21;42.49;101392.23;1706219;82;21792;-42
2021/08/13 12:19:41;;;;;;;2.80;2.10;;;;;;;27.25;42.41;101388.39;1709377;82;21532;-40
2021/08/13 12:22:07;;;;;;;2.55;2.10;;;;;;;27.31;42.32;101394.57;1707438;82;21543;-42
2021/08/13 12:24:39;;;;;;;2.85;2.47;;;;;;;27.36;42.20;101390.16;1706098;83;21436;-43
2021/08/13 12:27:08;;;;;;;2.55;2.05;;;;;;;27.40;42.13;101381.88;1705750;82;21031;-43
2021/08/13 12:29:37;;;;;;;2.92;2.02;;;;;;;27.43;41.98;101388.97;1707044;83;21294;-42
2021/08/13 12:32:06;;;;;;;3.30;2.10;;;;;;;27.48;41.85;101386.56;1713608;82;21528;-42
2021/08/13 12:34:34;;;;;;;3.62;2.08;;;;;;;27.51;41.78;101378.86;1707200;82;21095;-44
2021/08/13 12:37:12;;;;;;;3.47;2.08;;;;;;;27.55;41.72;101374.20;1716038;82;20999;-41
2021/08/13 12:39:45;;;;;;;3.40;2.10;;;;;;;27.58;41.75;101372.91;1707881;83;20962;-45
2021/08/13 12:42:15;;;;;;;2.98;2.20;;;;;;;27.63;41.79;101367.66;1709130;82;21191;-42
2021/08/13 12:44:42;;;;;;;3.00;2.00;;;;;;;27.65;41.86;101373.72;1710735;83;21528;-43
2021/08/13 12:47:09;;;;;;;2.83;2.27;;;;;;;27.68;41.94;101371.61;1710167;82;21022;-42
2021/08/13 12:49:37;;;;;;;2.65;2.00;;;;;;;27.72;42.00;101373.94;1708725;82;21382;-42
2021/08/13 12:52:14;;;;;;;3.02;2.17;;;;;;;27.76;42.05;101379.63;1713615;82;21125;-42
2021/08/13 12:54:45;;;;;;;2.95;2.00;;;;;;;27.78;42.11;101374.52;1721035;82;21022;-42
2021/08/13 12:57:13;;;;;;;2.17;1.77;;;;;;;27.82;42.19;101375.44;1716271;82;21038;-41
2021/08/13 12:59:49;;;;;;;2.15;1.90;;;;;;;27.84;42.20;101376.70;1715616;82;21556;-43
2021/08/13 13:02:26;;;;;;;3.90;2.10;;;;;;;27.87;42.24;101366.80;1717753;83;21098;-43
2021/08/13 13:05:02;;;;;;;5.33;2.25;;;;;;;27.90;42.29;101368.88;1720836;82;21082;-43
2021/08/13 13:07:38;;;;;;;3.22;2.17;;;;;;;27.93;42.32;101379.36;1720565;82;21051;-42
2021/08/13 13:10:24;;;;;;;3.72;1.92;;;;;;;27.93;42.35;101374.58;1718616;82;21124;-42
2021/08/13 13:12:51;;;;;;;2.37;1.92;;;;;;;27.95;42.37;101370.86;1718382;82;21109;-42
2021/08/13 13:15:28;;;;;;;3.58;2.10;;;;;;;27.98;42.37;101372.12;1720695;82;21122;-42
2021/08/13 13:17:57;;;;;;;2.90;2.30;;;;;;;27.99;42.39;101370.38;1719187;82;21113;-42
2021/08/13 13:20:23;;;;;;;2.60;2.00;;;;;;;28.00;42.43;101369.22;1720030;82;21068;-43
2021/08/13 13:23:10;;;;;;;2.77;2.40;;;;;;;28.03;42.45;101377.47;1719358;82;21422;-42
2021/08/13 13:25:47;;;;;;;2.52;1.90;;;;;;;28.05;42.45;101374.53;1717603;82;21523;-42
2021/08/13 13:28:14;;;;;;;3.20;2.02;;;;;;;28.08;42.46;101370.23;1717956;82;21157;-42
2021/08/13 13:30:46;;;;;;;2.33;1.82;;;;;;;28.11;42.49;101370.94;1688186;83;21107;-43
2021/08/13 13:33:24;;;;;;;2.75;2.05;;;;;;;28.13;42.49;101369.41;1718262;82;21832;-42
2021/08/13 13:36:01;;;;;;;2.50;2.10;;;;;;;28.18;42.52;101361.95;1719128;82;21050;-42
2021/08/13 13:38:29;;;;;;;2.55;2.00;;;;;;;28.19;42.54;101364.38;1718567;82;21078;-43
2021/08/13 13:40:55;;;;;;;3.22;2.15;;;;;;;28.22;42.56;101368.47;1720857;82;21146;-43
2021/08/13 13:43:22;;;;;;;2.58;1.82;;;;;;;28.23;42.57;101362.49;1720357;82;20995;-43
2021/08/13 13:45:54;;;;;;;3.50;2.02;;;;;;;28.25;42.60;101369.14;1716576;82;21515;-42
2021/08/13 13:48:21;;;;;;;2.62;1.90;;;;;;;28.28;42.62;101365.63;1717725;82;21470;-42
2021/08/13 13:50:47;;;;;;;2.52;1.90;;;;;;;28.30;42.61;101364.11;1716073;82;21066;-41
2021/08/13 13:53:14;;;;;;;2.45;1.82;;;;;;;28.32;42.63;101367.94;1716160;82;21041;-42
2021/08/13 13:55:40;;;;;;;2.20;1.65;;;;;;;28.33;42.64;101375.17;1718749;82;21086;-42
2021/08/13 13:58:06;;;;;;;2.70;1.85;;;;;;;28.34;42.65;101368.41;1717074;82;22116;-43
2021/08/13 14:00:32;;;;;;;2.30;1.85;;;;;;;28.35;42.68;101373.63;1719596;82;21023;-42
2021/08/13 14:02:59;;;;;;;1.92;1.52;;;;;;;28.37;42.68;101371.88;1718036;82;21082;-42
2021/08/13 14:05:25;;;;;;;3.37;1.95;;;;;;;28.39;42.71;101363.95;1715893;81;21106;-42
2021/08/13 14:07:52;;;;;;;2.60;1.80;;;;;;;28.40;42.74;101369.76;1704579;83;21416;-43
2021/08/13 14:10:23;;;;;;;2.60;1.82;;;;;;;28.42;42.73;101374.43;1694208;83;21162;-43
2021/08/13 14:12:50;;;;;;;2.37;1.70;;;;;;;28.43;42.74;101364.25;1693892;83;21145;-43
2021/08/13 14:15:19;;;;;;;3.42;2.00;;;;;;;28.44;42.77;101372.88;1696545;83;21015;-42
2021/08/13 14:17:48;;;;;;;2.20;1.82;;;;;;;28.45;42.78;101360.52;1697278;83;21124;-41
2021/08/13 14:20:15;;;;;;;2.30;1.77;;;;;;;28.47;42.80;101366.59;1693202;83;21041;-42
2021/08/13 14:22:42;;;;;;;2.30;1.65;;;;;;;28.48;42.80;101362.60;1693654;83;21514;-42
2021/08/13 14:25:11;;;;;;;2.45;1.87;;;;;;;28.50;42.80;101365.05;1696837;83;21681;-41
2021/08/13 14:27:37;;;;;;;1.90;1.70;;;;;;;28.51;42.81;101366.69;1695384;83;21031;-41
2021/08/13 14:30:06;;;;;;;2.52;2.08;;;;;;;28.52;42.84;101367.70;1695477;83;21390;-42
2021/08/13 14:32:33;;;;;;;2.20;1.77;;;;;;;28.52;42.83;101359.89;1694897;83;21032;-41
2021/08/13 14:34:59;;;;;;;2.75;1.80;;;;;;;28.53;42.86;101358.73;1694926;83;21183;-42
2021/08/13 14:37:25;;;;;;;1.82;1.67;;;;;;;28.54;42.89;101360.36;1694901;83;21111;-42
2021/08/13 14:39:51;;;;;;;2.15;1.82;;;;;;;28.54;42.89;101355.58;1695151;84;21492;-41
2021/08/13 14:42:18;;;;;;;2.22;1.75;;;;;;;28.55;42.90;101353.02;1694699;83;21553;-41
2021/08/13 14:44:44;;;;;;;3.45;2.10;;;;;;;28.56;42.92;101356.02;1697904;83;21139;-44
2021/08/13 14:47:10;;;;;;;2.62;1.95;;;;;;;28.58;42.92;101355.67;1694752;83;21685;-42
2021/08/13 14:49:36;;;;;;;2.55;1.85;;;;;;;28.59;42.93;101348.91;1697324;83;20935;-41
2021/08/13 14:52:03;;;;;;;2.50;1.98;;;;;;;28.59;42.91;101358.13;1699701;83;21125;-41
2021/08/13 14:54:29;;;;;;;1.95;1.72;;;;;;;28.60;42.94;101349.14;1697084;83;21022;-41
2021/08/13 14:56:55;;;;;;;1.92;1.70;;;;;;;28.60;42.94;101350.54;1727646;80;20899;-42
2021/08/13 14:59:21;;;;;;;2.37;1.92;;;;;;;28.59;42.95;101351.13;1725294;80;21168;-42
2021/08/13 15:01:47;;;;;;;2.20;1.70;;;;;;;28.60;42.95;101351.33;1728318;80;21419;-41
2021/08/13 15:04:14;;;;;;;2.42;1.80;;;;;;;28.60;42.97;101344.94;1723467;80;21007;-41
2021/08/13 15:06:40;;;;;;;1.55;1.45;;;;;;;28.60;42.97;101347.12;1726624;80;21020;-42
2021/08/13 15:09:06;;;;;;;2.42;1.72;;;;;;;28.61;42.98;101341.77;1741832;81;21177;-41
2021/08/13 15:11:32;;;;;;;2.72;1.80;;;;;;;28.62;42.99;101341.17;1751682;80;22043;-42
2021/08/13 15:13:58;;;;;;;3.02;1.80;;;;;;;28.61;43.00;101335.34;1750179;80;21071;-42
2021/08/13 15:16:24;;;;;;;2.00;1.62;;;;;;;28.62;43.00;101334.18;1754542;80;20894;-40
2021/08/13 15:18:51;;;;;;;2.30;1.65;;;;;;;28.63;43.01;101330.80;1740486;80;21086;-41
2021/08/13 15:21:17;;;;;;;2.42;1.62;;;;;;;28.63;43.00;101337.22;1745649;80;21054;-41
2021/08/13 15:23:43;;;;;;;2.20;1.72;;;;;;;28.65;43.00;101338.23;1746398;80;21025;-40
2021/08/13 15:26:10;;;;;;;2.30;1.80;;;;;;;28.64;43.00;101329.05;1741375;80;21027;-40
2021/08/13 15:28:36;;;;;;;2.08;1.60;;;;;;;28.65;43.00;101334.03;1741361;80;21079;-42
2021/08/13 15:31:05;;;;;;;2.35;1.67;;;;;;;28.64;42.99;101333.25;1753328;80;21019;-42
2021/08/13 15:33:31;;;;;;;1.90;1.70;;;;;;;28.64;42.99;101329.05;1748246;80;21070;-41
2021/08/13 15:35:58;;;;;;;2.20;1.77;;;;;;;28.65;43.03;101324.23;1750795;80;21121;-41
2021/08/13 15:38:24;;;;;;;2.62;2.05;;;;;;;28.64;43.03;101323.45;1744128;80;21511;-40
2021/08/13 15:40:50;;;;;;;2.25;1.67;;;;;;;28.64;43.03;101326.25;1713841;82;21158;-42
2021/08/13 15:43:16;;;;;;;2.20;1.90;;;;;;;28.65;43.01;101327.03;1689025;83;21105;-40
2021/08/13 15:45:42;;;;;;;2.60;1.75;;;;;;;28.64;43.03;101323.45;1709282;82;21030;-40
2021/08/13 15:48:09;;;;;;;2.10;1.72;;;;;;;28.63;43.03;101320.41;1709203;83;21904;-41
2021/08/13 15:50:35;;;;;;;2.15;1.80;;;;;;;28.63;43.03;101317.61;1707658;82;21483;-41
2021/08/13 15:53:02;;;;;;;1.98;1.55;;;;;;;28.64;43.04;101317.84;1704367;82;21084;-43
2021/08/13 15:55:28;;;;;;;1.85;1.60;;;;;;;28.61;43.02;101316.56;1667261;83;21089;-40
2021/08/13 15:57:54;;;;;;;3.30;1.90;;;;;;;28.61;43.04;101318.55;1718997;82;21477;-40
2021/08/13 16:00:20;;;;;;;2.58;1.90;;;;;;;28.61;43.02;101319.36;1721858;82;23336;-42
2021/08/13 16:02:46;;;;;;;1.70;1.55;;;;;;;28.62;43.05;101318.78;1717768;82;21089;-41
2021/08/13 16:05:15;;;;;;;2.40;1.82;;;;;;;28.61;43.06;101316.56;1714157;82;21190;-40
2021/08/13 16:07:41;;;;;;;3.90;1.72;;;;;;;28.60;42.99;101321.93;1711759;82;21012;-42
2021/08/13 16:10:09;;;;;;;2.80;1.30;;;;;;;28.56;42.83;101318.23;1688831;83;21488;-40
2021/08/13 16:12:35;;;;;;;2.77;1.60;;;;;;;28.53;42.75;101320.94;1690786;83;21118;-59
2021/08/13 16:15:01;;;;;;;1.60;1.27;;;;;;;28.50;42.71;101324.46;1692246;83;21241;-47
2021/08/13 16:17:29;;;;;;;2.77;1.40;;;;;;;28.47;42.71;101323.20;1693520;83;21082;-47
2021/08/13 16:19:55;;;;;;;2.90;1.52;;;;;;;28.45;42.70;101320.52;1691871;83;21755;-48
2021/08/13 16:22:22;;;;;;;3.58;2.27;;;;;;;28.43;42.72;101318.69;1695056;83;21105;-50
2021/08/13 16:24:48;;;;;;;1.70;1.55;;;;;;;28.40;42.74;101324.39;1692874;83;23316;-50
2021/08/13 16:27:14;;;;;;;3.52;1.65;;;;;;;28.37;42.79;101319.52;1693519;83;21094;-50
2021/08/13 16:29:40;;;;;;;2.87;1.50;;;;;;;28.35;42.82;101321.85;1688315;83;21139;-50
2021/08/13 16:32:07;;;;;;;2.17;1.70;;;;;;;28.32;42.84;101314.19;1693657;83;21089;-49
2021/08/13 16:34:33;;;;;;;4.05;2.20;;;;;;;28.31;42.86;101325.72;1734689;80;21075;-42
2021/08/13 16:36:59;;;;;;;2.60;2.08;;;;;;;28.29;42.91;101325.28;1730559;81;21329;-43
2021/08/13 16:39:28;;;;;;;4.15;1.98;;;;;;;28.28;42.96;101321.67;1730260;81;21619;-42
2021/08/13 16:41:55;;;;;;;4.80;2.10;;;;;;;28.27;42.98;101325.63;1679254;81;21173;-42
2021/08/13 16:44:21;;;;;;;3.00;2.10;;;;;;;28.26;43.03;101326.01;1731437;81;21518;-42
2021/08/13 16:46:47;;;;;;;2.98;2.22;;;;;;;28.23;43.06;101323.32;1726930;80;21054;-46
2021/08/13 16:49:15;;;;;;;4.25;2.22;;;;;;;28.22;43.06;101327.28;1729564;80;21328;-46
2021/08/13 16:51:41;;;;;;;2.85;2.17;;;;;;;28.20;43.08;101325.44;1730588;80;21094;-45
2021/08/13 16:54:08;;;;;;;4.33;2.25;;;;;;;28.19;43.11;101324.39;1720263;80;21070;-48
2021/08/13 16:56:34;;;;;;;4.40;1.90;;;;;;;28.19;43.14;101320.19;1732441;80;21109;-43
2021/08/13 16:59:00;;;;;;;4.97;2.83;;;;;;;28.15;43.17;101316.72;1731737;80;21566;-43
2021/08/13 17:01:26;;;;;;;10.08;4.00;;;;;;;28.15;43.19;101311.70;1733785;80;21285;-42
2021/08/13 17:03:52;;;;;;;8.88;4.33;;;;;;;28.13;43.18;101315.47;1704017;83;21134;-43
2021/08/13 17:06:20;;;;;;;8.65;4.62;;;;;;;28.11;43.13;101313.59;1706228;81;21114;-44
2021/08/13 17:08:46;;;;;;;28.35;14.50;;;;;;;28.07;42.95;101314.05;1700892;82;21060;-44
2021/08/13 17:11:12;;;;;;;38.23;17.87;;;;;;;28.03;42.78;101313.13;1733337;81;21022;-45
2021/08/13 17:13:38;;;;;;;7.33;4.37;;;;;;;27.98;42.59;101317.00;1737030;80;21291;-43
2021/08/13 17:16:04;;;;;;;6.70;3.92;;;;;;;27.94;42.44;101323.08;1732136;81;21438;-44
2021/08/13 17:18:32;;;;;;;7.15;3.92;;;;;;;27.90;42.30;101322.16;1730872;80;21600;-45
2021/08/13 17:20:58;;;;;;;50.92;26.37;;;;;;;27.85;42.14;101315.99;1732701;80;21077;-43
2021/08/13 17:23:24;;;;;;;5.35;3.80;;;;;;;27.80;42.01;101331.04;1729748;81;21071;-44
2021/08/13 17:25:50;;;;;;;4.70;3.37;;;;;;;27.76;41.86;101325.92;1732012;80;21124;-43
2021/08/13 17:28:17;;;;;;;46.85;18.77;;;;;;;27.72;41.71;101329.20;1733993;80;21044;-42
2021/08/13 17:30:43;;;;;;;6.30;3.33;;;;;;;27.66;41.57;101332.84;1734059;80;20996;-46
2021/08/13 17:33:10;;;;;;;6.95;3.87;;;;;;;27.62;41.46;101326.92;1730868;81;21535;-44
2021/08/13 17:35:36;;;;;;;32.23;11.65;;;;;;;27.58;41.31;101327.39;1731793;80;21127;-47
2021/08/13 17:38:03;;;;;;;13.68;5.92;;;;;;;27.55;41.20;101330.88;1732202;80;21529;-46
2021/08/13 17:40:29;;;;;;;5.42;3.33;;;;;;;27.50;41.08;101330.53;1728787;80;21063;-47
2021/08/13 17:42:56;;;;;;;5.00;3.25;;;;;;;27.46;40.98;101332.95;1733999;80;22505;-45
2021/08/13 17:45:22;;;;;;;6.50;3.47;;;;;;;27.41;40.88;101334.03;1738882;80;21541;-44
2021/08/13 17:47:48;;;;;;;5.78;3.15;;;;;;;27.39;40.77;101333.55;1736987;81;21092;-44
2021/08/13 17:50:14;;;;;;;5.85;3.20;;;;;;;27.35;40.71;101334.03;1732556;80;21183;-46
2021/08/13 17:52:41;;;;;;;4.95;2.98;;;;;;;27.33;40.63;101335.56;1729322;80;21504;-46
2021/08/13 17:55:08;;;;;;;5.37;2.70;;;;;;;27.30;40.61;101339.84;1728013;80;21065;-45
2021/08/13 17:57:34;;;;;;;4.20;2.65;;;;;;;27.28;40.55;101338.00;1724961;80;21036;-45
2021/08/13 18:00:01;;;;;;;3.80;2.62;;;;;;;27.24;40.50;101339.27;1732514;80;21128;-46
2021/08/13 18:02:27;;;;;;;5.05;2.90;;;;;;;27.22;40.45;101344.98;1733259;81;21009;-43
2021/08/13 18:04:53;;;;;;;6.20;2.65;;;;;;;27.19;40.40;101353.48;1726366;81;20966;-45
2021/08/13 18:07:19;;;;;;;4.05;2.60;;;;;;;27.15;40.38;101352.56;1735377;82;21133;-47
2021/08/13 18:09:45;;;;;;;6.17;2.77;;;;;;;27.14;40.34;101358.48;1740644;80;21676;-44
2021/08/13 18:12:12;;;;;;;4.55;2.67;;;;;;;27.11;40.27;101359.19;1741872;81;21120;-48
2021/08/13 18:14:41;;;;;;;5.35;2.90;;;;;;;27.07;40.21;101361.88;1742048;80;21035;-46
2021/08/13 18:17:07;;;;;;;4.53;2.80;;;;;;;27.05;40.15;101364.19;1747150;80;21013;-45
2021/08/13 18:19:33;;;;;;;5.35;2.90;;;;;;;27.02;40.08;101364.89;1738647;81;21129;-45
2021/08/13 18:22:00;;;;;;;4.33;2.67;;;;;;;26.99;40.02;101368.35;1743856;80;21161;-45
2021/08/13 18:24:26;;;;;;;8.30;3.08;;;;;;;26.97;39.94;101365.11;1743770;80;21574;-46
2021/08/13 18:26:52;;;;;;;4.05;2.75;;;;;;;26.95;39.89;101368.00;1744638;80;21197;-44
2021/08/13 18:29:18;;;;;;;22.67;9.80;;;;;;;26.92;39.83;101365.33;1744801;80;21657;-43
2021/08/13 18:31:45;;;;;;;7.12;3.08;;;;;;;26.91;39.78;101371.25;1746932;80;21053;-46
2021/08/13 18:34:11;;;;;;;8.25;4.22;;;;;;;26.88;39.73;101371.38;1741720;80;21058;-44
2021/08/13 18:36:38;;;;;;;6.72;3.10;;;;;;;26.86;39.65;101367.31;1747710;80;21535;-46
2021/08/13 18:39:09;;;;;;;8.00;3.92;;;;;;;26.83;39.60;101370.98;1714921;82;21099;-47
2021/08/13 18:41:37;;;;;;;4.95;3.08;;;;;;;26.79;39.57;101373.42;1741579;81;21110;-44
2021/08/13 18:44:05;;;;;;;13.08;7.20;;;;;;;26.78;39.50;101380.98;1741678;80;21115;-45
2021/08/13 18:46:33;;;;;;;4.42;2.42;;;;;;;26.75;39.40;101383.08;1743896;80;21078;-46
2021/08/13 18:48:59;;;;;;;4.08;2.85;;;;;;;26.73;39.32;101383.20;1740774;81;21069;-46
2021/08/13 18:51:25;;;;;;;3.87;2.83;;;;;;;26.70;39.24;101378.28;1739698;80;21294;-45
2021/08/13 18:53:52;;;;;;;5.08;2.70;;;;;;;26.66;39.14;101386.54;1741216;81;21560;-45
2021/08/13 18:56:20;;;;;;;5.28;3.00;;;;;;;26.63;39.04;101383.05;1740121;81;21315;-44
2021/08/13 18:58:46;;;;;;;7.50;3.20;;;;;;;26.60;38.98;101381.53;1739329;81;21070;-46
2021/08/13 19:01:13;;;;;;;4.83;2.95;;;;;;;26.57;38.89;101384.42;1742868;81;21045;-45
2021/08/13 19:03:39;;;;;;;10.32;4.70;;;;;;;26.55;38.82;101385.36;1749499;81;21118;-46
2021/08/13 19:06:05;;;;;;;4.80;3.08;;;;;;;26.54;38.77;101392.67;1734424;81;21026;-45
2021/08/13 19:08:32;;;;;;;7.87;4.15;;;;;;;26.50;38.71;101392.55;1741072;80;21793;-46
2021/08/13 19:10:59;;;;;;;5.78;3.08;;;;;;;26.48;38.65;101390.66;1741351;81;21737;-45
2021/08/13 19:13:26;;;;;;;7.22;3.22;;;;;;;26.46;38.63;101388.00;1742347;80;21499;-45
2021/08/13 19:15:52;;;;;;;6.78;3.25;;;;;;;26.44;38.61;101393.12;1711637;82;21883;-48
2021/08/13 19:18:18;;;;;;;6.83;3.67;;;;;;;26.42;38.56;101387.05;1738557;81;21050;-47
2021/08/13 19:20:45;;;;;;;7.28;4.12;;;;;;;26.40;38.51;101400.52;1746948;80;20995;-44
2021/08/13 19:23:11;;;;;;;10.55;4.45;;;;;;;26.38;38.45;101387.50;1744237;80;21462;-43
2021/08/13 19:25:37;;;;;;;11.75;5.45;;;;;;;26.35;38.44;101388.41;1742369;80;21036;-43
2021/08/13 19:28:04;;;;;;;8.78;3.90;;;;;;;26.35;38.53;101394.59;1743871;80;21091;-44
2021/08/13 19:30:30;;;;;;;8.75;4.00;;;;;;;26.35;38.58;101383.44;1741788;80;21061;-47
2021/08/13 19:32:56;;;;;;;8.83;3.50;;;;;;;26.34;38.61;101384.02;1743333;80;21071;-43
2021/08/13 19:35:23;;;;;;;14.18;5.30;;;;;;;26.33;38.60;101385.73;1744920;81;21072;-45
2021/08/13 19:37:49;;;;;;;16.95;7.62;;;;;;;26.32;38.60;101386.31;1746966;80;21025;-44
2021/08/13 19:40:15;;;;;;;12.43;4.28;;;;;;;26.31;38.60;101383.86;1744081;81;21303;-43
2021/08/13 19:42:41;;;;;;;15.30;4.47;;;;;;;26.31;38.56;101395.02;1745723;81;21510;-44
2021/08/13 19:45:09;;;;;;;9.38;4.15;;;;;;;26.29;38.52;101391.77;1747994;80;21023;-48
2021/08/13 19:47:35;;;;;;;9.20;4.15;;;;;;;26.28;38.52;101391.52;1739658;80;21136;-44
2021/08/13 19:50:01;;;;;;;15.03;3.95;;;;;;;26.26;38.49;101389.09;1708355;82;21552;-45
2021/08/13 19:52:27;;;;;;;11.75;4.20;;;;;;;26.23;38.43;101382.78;1712387;82;22043;-46
2021/08/13 19:54:53;;;;;;;26.77;7.72;;;;;;;26.22;38.41;101392.34;1737329;80;21104;-48
2021/08/13 19:57:20;;;;;;;38.02;11.25;;;;;;;26.21;38.38;101382.91;1746237;81;21080;-47
2021/08/13 19:59:46;;;;;;;54.53;15.28;;;;;;;26.20;38.36;101395.21;1745920;80;21581;-48
2021/08/13 20:02:12;;;;;;;57.62;17.20;;;;;;;26.18;38.34;101388.53;1744978;81;21074;-47
2021/08/13 20:04:39;;;;;;;72.12;18.98;;;;;;;26.16;38.29;101389.47;1744788;81;21143;-46
2021/08/13 20:07:05;;;;;;;51.90;17.50;;;;;;;26.15;38.24;101387.83;1747825;80;21122;-48
2021/08/13 20:09:31;;;;;;;55.50;17.40;;;;;;;26.14;38.22;101387.59;1736201;81;21009;-45
2021/08/13 20:11:58;;;;;;;61.00;18.70;;;;;;;26.13;38.19;101385.98;1730431;82;21128;-44
2021/08/13 20:14:24;;;;;;;56.25;17.35;;;;;;;26.12;38.16;101391.31;1731041;80;21037;-45
2021/08/13 20:16:50;;;;;;;53.90;17.57;;;;;;;26.10;38.13;101390.83;1728799;80;21545;-44
2021/08/13 20:19:16;;;;;;;59.45;17.40;;;;;;;26.07;38.08;101393.48;1729227;81;21058;-45
2021/08/13 20:21:42;;;;;;;48.68;16.95;;;;;;;26.06;38.03;101391.84;1729063;80;20946;-46
2021/08/13 20:24:08;;;;;;;56.45;16.93;;;;;;;26.04;38.03;101392.20;1729106;80;21627;-45
2021/08/13 20:26:34;;;;;;;45.20;15.40;;;;;;;26.04;37.95;101394.17;1735089;80;21102;-44
2021/08/13 20:29:00;;;;;;;47.98;15.75;;;;;;;26.02;37.91;101396.47;1727199;81;23336;-46
2021/08/13 20:31:26;;;;;;;48.28;15.40;;;;;;;26.00;37.88;101392.66;1737524;80;20934;-46
2021/08/13 20:33:53;;;;;;;39.48;13.50;;;;;;;25.98;37.85;101389.37;1730075;80;21063;-45
2021/08/13 20:36:19;;;;;;;41.60;14.45;;;;;;;25.98;37.80;101387.16;1730496;81;21067;-47
2021/08/13 20:38:46;;;;;;;37.00;13.68;;;;;;;25.95;37.71;101387.27;1730944;81;21168;-47
2021/08/13 20:41:12;;;;;;;43.98;14.90;;;;;;;25.94;37.71;101391.21;1731795;80;21642;-46
2021/08/13 20:43:39;;;;;;;35.92;13.10;;;;;;;25.93;37.66;101381.81;1732711;80;20983;-44
2021/08/13 20:46:06;;;;;;;42.17;14.53;;;;;;;25.92;37.66;101387.96;1728766;80;21034;-45
2021/08/13 20:48:32;;;;;;;28.47;11.40;;;;;;;25.90;37.60;101388.87;1725201;80;21125;-44
2021/08/13 20:50:59;;;;;;;39.15;12.90;;;;;;;25.89;37.63;101387.23;1729338;81;21078;-44
2021/08/13 20:53:25;;;;;;;34.50;13.32;;;;;;;25.91;37.71;101385.75;1733937;80;21145;-44
2021/08/13 20:55:51;;;;;;;40.08;13.30;;;;;;;25.93;37.78;101386.20;1726389;80;21024;-44
2021/08/13 20:58:17;;;;;;;33.98;12.53;;;;;;;25.96;37.82;101381.95;1733445;80;21098;-45
2021/08/13 21:00:43;;;;;;;34.73;12.53;;;;;;;26.00;37.86;101384.28;1733679;80;21070;-44
2021/08/13 21:03:10;;;;;;;29.18;11.50;;;;;;;26.03;37.86;101391.96;1732731;80;21741;-44
2021/08/13 21:05:36;;;;;;;37.30;12.45;;;;;;;26.04;37.89;101381.63;1729798;82;21585;-43
2021/08/13 21:08:03;;;;;;;35.17;12.95;;;;;;;26.08;37.90;101385.36;1730565;80;21044;-45
2021/08/13 21:10:30;;;;;;;29.63;11.55;;;;;;;26.09;37.92;101377.24;1734313;80;21025;-43
2021/08/13 21:12:56;;;;;;;29.87;11.10;;;;;;;26.10;37.93;101372.70;1732115;80;21553;-46
2021/08/13 21:15:22;;;;;;;28.32;11.20;;;;;;;26.12;37.94;101375.16;1730760;80;21006;-46
2021/08/13 21:17:49;;;;;;;28.15;11.53;;;;;;;26.13;37.97;101372.61;1735785;81;21342;-44
2021/08/13 21:20:15;;;;;;;31.12;11.35;;;;;;;26.14;37.97;101372.25;1734546;80;21078;-44
2021/08/13 21:22:41;;;;;;;21.80;10.63;;;;;;;26.16;37.97;101367.73;1731239;80;21003;-45
2021/08/13 21:25:09;;;;;;;25.90;10.25;;;;;;;26.18;37.99;101370.41;1733697;81;21080;-44
2021/08/13 21:27:35;;;;;;;26.65;9.88;;;;;;;26.19;38.00;101367.05;1733378;80;21134;-45
2021/08/13 21:30:01;;;;;;;22.90;9.88;;;;;;;26.20;37.98;101363.95;1733988;80;21624;-47
2021/08/13 21:32:28;;;;;;;23.75;9.88;;;;;;;26.21;37.97;101365.59;1727896;80;21052;-44
2021/08/13 21:34:54;;;;;;;30.37;11.08;;;;;;;26.23;38.01;101365.23;1732823;80;21508;-44
2021/08/13 21:37:21;;;;;;;26.52;10.95;;;;;;;26.26;38.07;101370.15;1734454;81;21156;-46
2021/08/13 21:39:47;;;;;;;26.23;10.28;;;;;;;26.29;38.12;101359.11;1729050;82;21071;-45
2021/08/13 21:42:13;;;;;;;26.73;10.43;;;;;;;26.32;38.17;101365.39;1730240;80;21535;-47
2021/08/13 21:44:39;;;;;;;24.52;10.05;;;;;;;26.35;38.22;101367.48;1732339;81;21090;-47
2021/08/13 21:47:06;;;;;;;27.70;10.82;;;;;;;26.39;38.26;101366.82;1737841;80;21516;-45
2021/08/13 21:49:33;;;;;;;23.83;9.95;;;;;;;26.41;38.32;101374.25;1737278;80;21521;-46
2021/08/13 21:51:59;;;;;;;22.42;9.70;;;;;;;26.44;38.35;101374.98;1730170;80;21086;-48
2021/08/13 21:54:26;;;;;;;24.27;9.75;;;;;;;26.45;38.37;101377.41;1735284;81;21673;-46
2021/08/13 21:56:52;;;;;;;23.30;9.93;;;;;;;26.49;38.40;101381.14;1731057;81;21059;-46
2021/08/13 21:59:19;;;;;;;22.75;10.08;;;;;;;26.50;38.42;101377.77;1731596;80;21631;-44
2021/08/13 22:01:45;;;;;;;31.55;9.50;;;;;;;26.52;38.46;101376.26;1729078;82;21117;-45
2021/08/13 22:04:11;;;;;;;28.30;10.75;;;;;;;26.55;38.50;101385.36;1742320;81;21647;-46
2021/08/13 22:06:38;;;;;;;24.55;10.18;;;;;;;26.56;38.52;101388.39;1742657;80;21119;-45
2021/08/13 22:09:04;;;;;;;23.27;10.03;;;;;;;26.58;38.56;101382.45;1731946;80;21085;-46
2021/08/13 22:11:31;;;;;;;26.23;11.00;;;;;;;26.60;38.58;101383.75;1729747;80;21516;-44
2021/08/13 22:13:57;;;;;;;25.00;9.98;;;;;;;26.61;38.61;101388.15;1712567;80;21114;-44
2021/08/13 22:16:23;;;;;;;23.18;10.38;;;;;;;26.63;38.65;101387.23;1725881;80;21077;-43
2021/08/13 22:18:49;;;;;;;24.92;9.68;;;;;;;26.65;38.69;101384.11;1724920;81;22700;-44
2021/08/13 22:21:15;;;;;;;25.25;10.18;;;;;;;26.66;38.71;101384.33;1729659;80;21040;-45
2021/08/13 22:23:42;;;;;;;22.55;9.93;;;;;;;26.68;38.75;101389.81;1727292;81;21081;-43
2021/08/13 22:26:08;;;;;;;21.95;9.65;;;;;;;26.69;38.80;101390.03;1730380;81;21137;-47
2021/08/13 22:28:34;;;;;;;23.38;9.33;;;;;;;26.70;38.83;101386.08;1723993;82;21116;-45
2021/08/13 22:31:01;;;;;;;23.67;9.48;;;;;;;26.72;38.86;101389.94;1729007;81;22279;-43